Time;durP1;ratioP1;P1;durP2;ratioP2;P2;SDS_P1;SDS_P2;PMS_P1;PMS_P2;Temp;Humidity;BMP_temperature;BMP_pressure;BME280_temperature;BME280_humidity;BME280_pressure;Samples;Min_cycle;Max_cycle;Signal;HPM_P1;HPM_P2
2023/11/25 00:01:44;;;;;;;;;;;21.50;40.10;;;;;;4994634;28;20049;-47
2023/11/25 00:04:12;;;;;;;;;;;21.50;40.10;;;;;;4977896;28;19953;-46
2023/11/25 00:06:38;;;;;;;;;;;21.50;40.10;;;;;;4980104;28;19951;-59
2023/11/25 00:09:06;;;;;;;;;;;21.50;40.10;;;;;;4981653;28;19926;-59
2023/11/25 00:11:33;;;;;;;;;;;21.50;40.10;;;;;;4980941;28;20394;-58
2023/11/25 00:14:00;;;;;;;;;;;21.50;40.10;;;;;;4981452;28;19988;-46
2023/11/25 00:16:27;;;;;;;;;;;21.50;40.10;;;;;;4981749;28;19926;-59
2023/11/25 00:18:54;;;;;;;;;;;21.50;40.10;;;;;;4981819;28;19972;-59
2023/11/25 00:21:21;;;;;;;;;;;21.50;40.70;;;;;;4980341;28;19980;-59
2023/11/25 00:23:48;;;;;;;;;;;21.50;40.10;;;;;;4981612;28;19969;-59
2023/11/25 00:26:15;;;;;;;;;;;21.50;40.10;;;;;;4981509;28;20358;-58
2023/11/25 00:28:42;;;;;;;;;;;21.50;40.10;;;;;;4981476;28;20339;-57
2023/11/25 00:31:09;;;;;;;;;;;21.50;40.10;;;;;;4981506;28;19926;-58
2023/11/25 00:33:36;;;;;;;;;;;21.50;40.10;;;;;;4981622;28;19926;-58
2023/11/25 00:36:03;;;;;;;;;;;21.50;40.00;;;;;;4981264;28;20419;-58
2023/11/25 00:38:31;;;;;;;;;;;21.50;40.00;;;;;;4980020;28;20434;-58
2023/11/25 00:40:58;;;;;;;;;;;21.50;40.00;;;;;;4981178;28;19980;-59
2023/11/25 00:43:25;;;;;;;;;;;21.50;40.10;;;;;;4980469;28;19926;-58
2023/11/25 00:45:52;;;;;;;;;;;21.40;40.10;;;;;;4980627;28;19933;-59
2023/11/25 00:48:19;;;;;;;;;;;21.40;40.10;;;;;;4981238;28;19926;-59
2023/11/25 00:50:47;;;;;;;;;;;21.40;40.20;;;;;;4980946;28;19978;-58
2023/11/25 00:53:13;;;;;;;;;;;21.40;40.20;;;;;;4981007;28;19999;-59
2023/11/25 00:55:41;;;;;;;;;;;21.40;40.20;;;;;;4964066;28;20005;-46
2023/11/25 00:58:08;;;;;;;;;;;21.40;40.20;;;;;;4980996;28;19933;-47
2023/11/25 01:00:35;;;;;;;;;;;21.40;40.30;;;;;;4981107;28;19961;-58
2023/11/25 01:03:02;;;;;;;;;;;21.40;40.30;;;;;;4963374;28;20020;-59
2023/11/25 01:05:29;;;;;;;;;;;21.40;40.20;;;;;;4980791;28;19926;-58
2023/11/25 01:07:56;;;;;;;;;;;21.40;40.20;;;;;;4963296;28;19957;-59
2023/11/25 01:10:23;;;;;;;;;;;21.40;40.20;;;;;;4980625;28;19953;-58
2023/11/25 01:12:50;;;;;;;;;;;21.40;40.20;;;;;;4980827;28;19953;-58
2023/11/25 01:15:19;;;;;;;;;;;21.40;40.20;;;;;;4980574;28;19969;-58
2023/11/25 01:17:46;;;;;;;;;;;21.40;40.20;;;;;;4979777;28;19926;-59
2023/11/25 01:20:13;;;;;;;;;;;21.40;40.20;;;;;;4963348;28;19926;-59
2023/11/25 01:22:40;;;;;;;;;;;21.40;40.20;;;;;;4980689;28;20325;-59
2023/11/25 01:25:08;;;;;;;;;;;21.40;40.10;;;;;;4980245;28;19926;-47
2023/11/25 01:27:35;;;;;;;;;;;21.40;40.20;;;;;;4962966;28;19926;-59
2023/11/25 01:30:04;;;;;;;;;;;21.40;40.20;;;;;;4979978;28;19926;-59
2023/11/25 01:32:31;;;;;;;;;;;21.40;40.20;;;;;;4980635;28;20298;-59
2023/11/25 01:34:58;;;;;;;;;;;21.40;40.20;;;;;;4980278;28;19931;-59
2023/11/25 01:37:28;;;;;;;;;;;21.40;40.20;;;;;;4986666;28;19926;-59
2023/11/25 01:39:55;;;;;;;;;;;21.40;40.20;;;;;;4998172;28;19926;-59
2023/11/25 01:42:22;;;;;;;;;;;21.40;40.20;;;;;;4982458;28;20013;-58
2023/11/25 01:44:49;;;;;;;;;;;21.40;40.20;;;;;;4997152;28;19926;-47
2023/11/25 01:47:17;;;;;;;;;;;21.40;40.20;;;;;;4986920;28;19926;-46
2023/11/25 01:49:44;;;;;;;;;;;21.40;40.20;;;;;;4976211;28;19926;-47
2023/11/25 01:52:11;;;;;;;;;;;21.40;40.10;;;;;;4976293;28;19931;-47
2023/11/25 01:54:38;;;;;;;;;;;21.40;40.20;;;;;;4976193;28;19926;-46
2023/11/25 01:57:05;;;;;;;;;;;21.40;40.20;;;;;;4976518;28;20009;-48
2023/11/25 01:59:33;;;;;;;;;;;21.40;40.10;;;;;;4976202;28;20438;-48
2023/11/25 02:02:00;;;;;;;;;;;21.40;40.10;;;;;;4976165;28;19966;-48
2023/11/25 02:04:28;;;;;;;;;;;21.40;40.10;;;;;;4975937;28;19926;-49
2023/11/25 02:06:55;;;;;;;;;;;21.30;40.10;;;;;;4976369;28;19953;-46
2023/11/25 02:09:24;;;;;;;;;;;21.40;40.10;;;;;;4976167;28;19930;-46
2023/11/25 02:11:59;;;;;;;;;;;21.40;40.10;;;;;;4958846;28;19932;-46
2023/11/25 02:14:27;;;;;;;;;;;21.40;40.20;;;;;;4975856;28;20387;-47
2023/11/25 02:16:55;;;;;;;;;;;21.40;40.10;;;;;;4976309;28;19937;-47
2023/11/25 02:19:28;;;;;;;;;;;21.30;40.00;;;;;;4975601;28;19953;-48
2023/11/25 02:21:56;;;;;;;;;;;21.40;40.10;;;;;;4975765;28;20017;-48
2023/11/25 02:24:26;;;;;;;;;;;21.30;40.10;;;;;;4975613;28;19931;-48
2023/11/25 02:26:58;;;;;;;;;;;21.30;40.10;;;;;;4975753;28;19933;-54
2023/11/25 02:29:25;;;;;;;;;;;21.30;40.20;;;;;;4975442;28;20490;-54
2023/11/25 02:31:52;;;;;;;;;;;21.30;40.20;;;;;;4975648;28;20298;-52
2023/11/25 02:34:20;;;;;;;;;;;21.30;40.20;;;;;;4975524;28;20394;-52
2023/11/25 02:36:48;;;;;;;;;;;21.30;40.20;;;;;;4975558;28;19933;-50
2023/11/25 02:39:18;;;;;;;;;;;21.30;40.30;;;;;;4975404;28;19926;-52
2023/11/25 02:41:47;;;;;;;;;;;21.30;40.30;;;;;;4958852;28;19926;-51
2023/11/25 02:44:14;;;;;;;;;;;21.30;40.30;;;;;;4975264;28;19965;-48
2023/11/25 02:46:44;;;;;;;;;;;21.30;40.20;;;;;;4980002;28;19930;-54
2023/11/25 02:49:12;;;;;;;;;;;21.30;40.20;;;;;;4994670;28;19929;-47
2023/11/25 02:51:47;;;;;;;;;;;21.30;40.20;;;;;;4994543;28;19925;-46
2023/11/25 02:54:14;;;;;;;;;;;21.30;40.20;;;;;;4977630;28;19930;-46
2023/11/25 02:56:41;;;;;;;;;;;21.30;40.20;;;;;;4977648;28;20009;-54
2023/11/25 02:59:09;;;;;;;;;;;21.30;40.20;;;;;;4975161;28;20069;-53
2023/11/25 03:01:39;;;;;;;;;;;21.30;40.20;;;;;;4975055;28;19976;-51
2023/11/25 03:04:07;;;;;;;;;;;21.30;40.20;;;;;;4974967;28;19926;-46
2023/11/25 03:06:35;;;;;;;;;;;21.30;40.20;;;;;;4957941;28;19985;-53
2023/11/25 03:09:05;;;;;;;;;;;21.30;40.20;;;;;;4974985;28;19930;-48
2023/11/25 03:11:33;;;;;;;;;;;21.30;40.20;;;;;;4974881;28;20012;-51
2023/11/25 03:14:00;;;;;;;;;;;21.30;40.20;;;;;;4975014;28;20017;-46
2023/11/25 03:16:29;;;;;;;;;;;21.30;40.20;;;;;;4974911;28;19926;-49
2023/11/25 03:18:56;;;;;;;;;;;21.30;40.20;;;;;;4974712;28;19961;-50
2023/11/25 03:21:24;;;;;;;;;;;21.30;40.20;;;;;;4974951;28;19930;-47
2023/11/25 03:23:51;;;;;;;;;;;21.30;40.20;;;;;;4974993;28;19988;-48
2023/11/25 03:26:18;;;;;;;;;;;21.30;40.20;;;;;;4974707;28;20422;-47
2023/11/25 03:28:45;;;;;;;;;;;21.30;40.20;;;;;;4974783;28;19976;-51
2023/11/25 03:31:16;;;;;;;;;;;21.30;40.20;;;;;;4974464;28;19930;-51
2023/11/25 03:33:43;;;;;;;;;;;21.30;40.20;;;;;;4974736;28;19930;-47
2023/11/25 03:36:10;;;;;;;;;;;21.30;40.20;;;;;;4974990;28;19956;-48
2023/11/25 03:38:39;;;;;;;;;;;21.30;40.20;;;;;;4974613;28;19977;-51
2023/11/25 03:41:06;;;;;;;;;;;21.30;40.20;;;;;;4973759;28;19966;-53
2023/11/25 03:43:33;;;;;;;;;;;21.30;40.20;;;;;;4974625;28;19926;-46
2023/11/25 03:46:00;;;;;;;;;;;21.30;40.20;;;;;;4975065;28;19933;-46
2023/11/25 03:48:28;;;;;;;;;;;21.30;40.20;;;;;;4993296;28;19925;-50
2023/11/25 03:50:55;;;;;;;;;;;21.20;40.10;;;;;;4993848;28;19940;-46
2023/11/25 03:53:22;;;;;;;;;;;21.30;40.20;;;;;;4993701;28;20371;-47
2023/11/25 03:55:49;;;;;;;;;;;21.20;40.10;;;;;;4993848;28;19980;-46
2023/11/25 03:58:18;;;;;;;;;;;21.20;40.10;;;;;;4994009;28;19933;-47
2023/11/25 04:00:45;;;;;;;;;;;21.20;40.10;;;;;;4993651;28;20020;-46
2023/11/25 04:03:12;;;;;;;;;;;21.20;40.10;;;;;;4993738;28;20032;-52
2023/11/25 04:05:39;;;;;;;;;;;21.20;40.10;;;;;;4993719;28;20445;-46
2023/11/25 04:08:06;;;;;;;;;;;21.20;40.20;;;;;;4993785;28;20024;-46
2023/11/25 04:10:33;;;;;;;;;;;21.20;40.20;;;;;;4993716;28;20030;-50
2023/11/25 04:13:00;;;;;;;;;;;21.20;40.20;;;;;;4993708;28;20290;-47
2023/11/25 04:15:27;;;;;;;;;;;21.20;40.30;;;;;;4993629;28;19981;-47
2023/11/25 04:17:54;;;;;;;;;;;21.20;40.30;;;;;;4993811;28;19988;-56
2023/11/25 04:20:27;;;;;;;;;;;21.20;40.90;;;;;;4993549;28;20016;-54
2023/11/25 04:22:58;;;;;;;;;;;21.20;40.30;;;;;;4993577;28;20029;-54
2023/11/25 04:25:25;;;;;;;;;;;21.20;40.30;;;;;;4993489;28;20021;-52
2023/11/25 04:27:52;;;;;;;;;;;21.10;40.20;;;;;;4993994;28;19933;-49
2023/11/25 04:30:20;;;;;;;;;;;21.20;40.20;;;;;;4993813;28;19926;-51
2023/11/25 04:32:47;;;;;;;;;;;21.20;40.20;;;;;;4993473;28;19972;-52
2023/11/25 04:35:16;;;;;;;;;;;21.20;40.30;;;;;;4993366;28;20029;-52
2023/11/25 04:37:45;;;;;;;;;;;21.20;40.20;;;;;;4993625;28;19980;-47
2023/11/25 04:40:12;;;;;;;;;;;21.20;40.10;;;;;;4993554;28;19926;-51
2023/11/25 04:42:40;;;;;;;;;;;21.20;39.90;;;;;;4993727;28;19972;-46
2023/11/25 04:45:18;;;;;;;;;;;21.20;39.70;;;;;;4993281;28;20426;-51
2023/11/25 04:47:47;;;;;;;;;;;21.20;39.50;;;;;;4980805;28;19973;-46
2023/11/25 04:50:15;;;;;;;;;;;21.30;39.40;;;;;;4974240;28;19926;-52
2023/11/25 04:52:43;;;;;;;;;;;21.30;39.30;;;;;;4957794;28;20442;-49
2023/11/25 04:55:14;;;;;;;;;;;21.30;39.20;;;;;;4977604;28;20026;-50
2023/11/25 04:57:42;;;;;;;;;;;21.20;39.30;;;;;;4977715;28;20004;-53
2023/11/25 05:00:10;;;;;;;;;;;21.30;39.40;;;;;;4977381;28;20380;-48
2023/11/25 05:02:38;;;;;;;;;;;21.20;39.50;;;;;;4977410;28;19927;-51
2023/11/25 05:05:06;;;;;;;;;;;21.10;39.40;;;;;;4976951;28;19980;-53
2023/11/25 05:07:34;;;;;;;;;;;21.10;39.40;;;;;;4960424;28;19980;-46
2023/11/25 05:10:04;;;;;;;;;;;21.10;39.40;;;;;;4977445;28;20009;-46
2023/11/25 05:12:32;;;;;;;;;;;21.10;39.40;;;;;;4976964;28;19933;-46
2023/11/25 05:14:59;;;;;;;;;;;21.10;39.30;;;;;;4977281;28;20335;-49
2023/11/25 05:17:26;;;;;;;;;;;21.20;39.30;;;;;;4977378;28;19926;-50
2023/11/25 05:19:54;;;;;;;;;;;21.20;39.30;;;;;;4977170;28;19926;-46
2023/11/25 05:22:21;;;;;;;;;;;21.20;39.30;;;;;;4976798;28;20024;-50
2023/11/25 05:24:49;;;;;;;;;;;21.20;39.30;;;;;;4959697;28;20381;-46
2023/11/25 05:27:16;;;;;;;;;;;21.20;39.20;;;;;;4976893;28;19926;-46
2023/11/25 05:29:43;;;;;;;;;;;21.20;39.20;;;;;;4977068;28;19929;-46
2023/11/25 05:32:10;;;;;;;;;;;21.20;39.20;;;;;;4976695;28;20017;-47
2023/11/25 05:34:39;;;;;;;;;;;21.20;39.20;;;;;;4976725;28;19933;-46
2023/11/25 05:37:07;;;;;;;;;;;21.20;39.10;;;;;;4976924;28;20401;-47
2023/11/25 05:39:36;;;;;;;;;;;21.20;39.10;;;;;;4959333;28;20363;-50
2023/11/25 05:42:05;;;;;;;;;;;21.20;39.10;;;;;;4976996;28;20020;-47
2023/11/25 05:44:32;;;;;;;;;;;21.20;39.10;;;;;;4976363;28;19926;-51
2023/11/25 05:46:59;;;;;;;;;;;21.30;39.10;;;;;;4983567;28;19929;-48
2023/11/25 05:49:26;;;;;;;;;;;21.20;39.00;;;;;;4996072;28;20008;-47
2023/11/25 05:51:53;;;;;;;;;;;21.20;39.00;;;;;;4995805;28;19926;-46
2023/11/25 05:54:23;;;;;;;;;;;21.30;39.00;;;;;;4995484;28;19926;-50
2023/11/25 05:56:50;;;;;;;;;;;21.30;39.10;;;;;;4995681;28;19973;-51
2023/11/25 05:59:17;;;;;;;;;;;21.30;39.00;;;;;;4995710;28;20367;-51
2023/11/25 06:01:45;;;;;;;;;;;21.30;39.00;;;;;;4995496;28;19937;-48
2023/11/25 06:04:12;;;;;;;;;;;21.30;38.90;;;;;;4995370;28;19926;-46
2023/11/25 06:06:40;;;;;;;;;;;21.30;38.90;;;;;;4995805;28;19930;-52
2023/11/25 06:09:11;;;;;;;;;;;21.30;38.90;;;;;;4995714;28;19933;-52
2023/11/25 06:11:39;;;;;;;;;;;21.30;38.90;;;;;;4995204;28;20382;-54
2023/11/25 06:14:06;;;;;;;;;;;21.30;38.80;;;;;;4995709;28;19926;-53
2023/11/25 06:16:34;;;;;;;;;;;21.30;38.70;;;;;;4995200;28;19926;-53
2023/11/25 06:19:04;;;;;;;;;;;21.30;38.70;;;;;;4995285;28;19973;-52
2023/11/25 06:21:31;;;;;;;;;;;21.30;38.70;;;;;;4995284;28;19926;-52
2023/11/25 06:24:00;;;;;;;;;;;21.30;38.60;;;;;;4995007;28;20021;-52
2023/11/25 06:26:27;;;;;;;;;;;21.30;38.60;;;;;;4995468;28;19980;-53
2023/11/25 06:28:55;;;;;;;;;;;21.40;38.70;;;;;;4995563;28;20330;-52
2023/11/25 06:31:22;;;;;;;;;;;21.30;38.60;;;;;;4994909;28;19930;-48
2023/11/25 06:33:49;;;;;;;;;;;21.40;38.60;;;;;;4994954;28;19926;-52
2023/11/25 06:36:17;;;;;;;;;;;21.40;38.60;;;;;;4994917;28;20408;-54
2023/11/25 06:38:44;;;;;;;;;;;21.40;38.60;;;;;;4994942;28;19926;-47
2023/11/25 06:41:11;;;;;;;;;;;21.40;38.50;;;;;;4994703;28;19980;-47
2023/11/25 06:43:40;;;;;;;;;;;21.40;38.50;;;;;;4994500;28;19934;-46
2023/11/25 06:46:08;;;;;;;;;;;21.40;38.50;;;;;;4995053;28;19951;-52
2023/11/25 06:48:35;;;;;;;;;;;21.40;38.50;;;;;;4956422;29;20288;-46
2023/11/25 06:51:03;;;;;;;;;;;21.40;38.40;;;;;;4956269;29;20339;-48
2023/11/25 06:53:31;;;;;;;;;;;21.40;38.40;;;;;;4955859;29;19933;-52
2023/11/25 06:55:58;;;;;;;;;;;21.50;38.40;;;;;;4956053;29;19966;-51
2023/11/25 06:58:25;;;;;;;;;;;21.50;38.30;;;;;;4955954;29;20431;-50
2023/11/25 07:00:57;;;;;;;;;;;21.50;38.30;;;;;;4955811;29;20013;-49
2023/11/25 07:03:24;;;;;;;;;;;21.50;38.30;;;;;;4955676;29;19981;-47
2023/11/25 07:05:51;;;;;;;;;;;21.50;38.30;;;;;;4955936;29;19934;-49
2023/11/25 07:08:18;;;;;;;;;;;21.50;38.20;;;;;;4956016;29;19935;-49
2023/11/25 07:10:53;;;;;;;;;;;21.50;38.20;;;;;;4955689;29;20320;-45
2023/11/25 07:13:21;;;;;;;;;;;21.50;38.10;;;;;;4955419;29;19926;-45
2023/11/25 07:15:49;;;;;;;;;;;21.60;38.10;;;;;;4954790;28;20013;-50
2023/11/25 07:18:18;;;;;;;;;;;21.60;38.10;;;;;;4938626;29;19942;-48
2023/11/25 07:20:46;;;;;;;;;;;21.60;38.10;;;;;;4955480;29;20363;-48
2023/11/25 07:23:14;;;;;;;;;;;21.60;38.10;;;;;;4955484;29;19933;-46
2023/11/25 07:25:42;;;;;;;;;;;21.60;38.00;;;;;;4955722;29;19941;-52
2023/11/25 07:28:12;;;;;;;;;;;21.70;38.00;;;;;;4955730;29;19960;-52
2023/11/25 07:30:41;;;;;;;;;;;21.70;38.00;;;;;;4955433;29;19965;-51
2023/11/25 07:33:09;;;;;;;;;;;21.70;37.90;;;;;;4955583;29;19954;-47
2023/11/25 07:35:36;;;;;;;;;;;21.70;37.80;;;;;;4968067;28;20033;-47
2023/11/25 07:38:03;;;;;;;;;;;21.80;37.80;;;;;;4973765;28;19926;-52
2023/11/25 07:40:30;;;;;;;;;;;21.80;37.80;;;;;;4973458;28;20294;-46
2023/11/25 07:42:58;;;;;;;;;;;21.80;37.70;;;;;;4973238;28;20388;-47
2023/11/25 07:45:25;;;;;;;;;;;21.80;37.60;;;;;;4974670;28;20028;-47
2023/11/25 07:47:52;;;;;;;;;;;21.80;37.60;;;;;;4981381;28;19969;-46
2023/11/25 07:50:21;;;;;;;;;;;21.90;37.60;;;;;;4971419;28;20409;-47
2023/11/25 07:52:49;;;;;;;;;;;21.90;37.60;;;;;;4971790;28;19930;-52
2023/11/25 07:55:16;;;;;;;;;;;21.90;37.60;;;;;;4973639;28;19926;-50
2023/11/25 07:57:44;;;;;;;;;;;21.80;37.50;;;;;;4973358;28;20388;-53
2023/11/25 08:00:15;;;;;;;;;;;21.90;37.50;;;;;;4972215;28;20370;-52
2023/11/25 08:02:44;;;;;;;;;;;21.90;37.50;;;;;;4973697;28;19926;-53
2023/11/25 08:05:11;;;;;;;;;;;21.90;37.50;;;;;;4974191;28;19930;-52
2023/11/25 08:07:38;;;;;;;;;;;21.90;37.50;;;;;;4973153;28;20350;-52
2023/11/25 08:10:07;;;;;;;;;;;21.90;37.50;;;;;;4957064;28;20490;-51
2023/11/25 08:12:34;;;;;;;;;;;21.90;37.50;;;;;;4973158;28;20390;-51
2023/11/25 08:15:02;;;;;;;;;;;21.90;37.40;;;;;;4974316;28;19970;-49
2023/11/25 08:17:29;;;;;;;;;;;21.90;37.40;;;;;;4972433;28;20020;-53
2023/11/25 08:19:57;;;;;;;;;;;21.90;37.40;;;;;;4973896;28;19934;-50
2023/11/25 08:22:24;;;;;;;;;;;21.90;37.40;;;;;;4972705;28;20020;-52
2023/11/25 08:24:57;;;;;;;;;;;21.90;37.40;;;;;;4956856;28;19952;-49
2023/11/25 08:27:24;;;;;;;;;;;21.90;37.40;;;;;;4974866;28;19961;-51
2023/11/25 08:29:51;;;;;;;;;;;22.00;37.40;;;;;;4978066;28;19930;-51
2023/11/25 08:32:18;;;;;;;;;;;21.90;37.30;;;;;;4960210;28;20487;-48
2023/11/25 08:34:45;;;;;;;;;;;21.90;37.30;;;;;;4958120;28;19930;-49
2023/11/25 08:37:12;;;;;;;;;;;21.90;37.30;;;;;;4974901;28;19926;-48
2023/11/25 08:39:39;;;;;;;;;;;21.90;37.30;;;;;;4973613;28;19969;-52
2023/11/25 08:42:08;;;;;;;;;;;21.90;37.30;;;;;;4975854;28;19981;-48
2023/11/25 08:44:36;;;;;;;;;;;21.90;37.30;;;;;;4974570;28;20475;-47
2023/11/25 08:47:03;;;;;;;;;;;21.90;37.30;;;;;;4984669;28;20350;-48
2023/11/25 08:49:32;;;;;;;;;;;22.00;37.20;;;;;;4981711;28;19926;-46
2023/11/25 08:51:59;;;;;;;;;;;22.00;37.20;;;;;;4977468;28;19926;-48
2023/11/25 08:54:26;;;;;;;;;;;22.00;37.20;;;;;;4977566;28;20009;-47
2023/11/25 08:56:54;;;;;;;;;;;22.00;37.10;;;;;;4977611;28;19980;-48
2023/11/25 08:59:21;;;;;;;;;;;22.00;37.00;;;;;;4977665;28;19930;-52
2023/11/25 09:01:48;;;;;;;;;;;22.10;37.10;;;;;;4968300;28;19949;-51
2023/11/25 09:04:19;;;;;;;;;;;22.10;37.00;;;;;;4967853;28;19934;-51
2023/11/25 09:06:47;;;;;;;;;;;22.10;36.90;;;;;;4975209;28;19934;-45
2023/11/25 09:09:15;;;;;;;;;;;22.20;36.90;;;;;;4973548;28;19934;-52
2023/11/25 09:11:43;;;;;;;;;;;22.20;36.80;;;;;;4976157;28;20462;-50
2023/11/25 09:14:10;;;;;;;;;;;22.30;36.70;;;;;;4970328;28;19962;-51
2023/11/25 09:16:38;;;;;;;;;;;22.30;36.60;;;;;;4974807;28;19930;-51
2023/11/25 09:19:05;;;;;;;;;;;22.30;36.50;;;;;;4975527;28;19981;-51
2023/11/25 09:21:32;;;;;;;;;;;22.40;36.50;;;;;;4975210;28;19930;-48
2023/11/25 09:23:58;;;;;;;;;;;22.40;36.50;;;;;;4974284;28;19962;-46
2023/11/25 09:26:25;;;;;;;;;;;22.40;36.40;;;;;;4977052;28;19926;-52
2023/11/25 09:28:53;;;;;;;;;;;22.40;36.30;;;;;;4976278;28;20017;-51
2023/11/25 09:31:21;;;;;;;;;;;22.40;36.30;;;;;;4976213;28;19926;-47
2023/11/25 09:33:49;;;;;;;;;;;22.40;36.20;;;;;;4974837;28;19933;-49
2023/11/25 09:36:16;;;;;;;;;;;22.40;36.20;;;;;;4976776;28;19934;-52
2023/11/25 09:38:43;;;;;;;;;;;22.50;36.30;;;;;;4971389;28;20025;-51
2023/11/25 09:41:10;;;;;;;;;;;22.50;36.20;;;;;;4973360;28;20368;-53
2023/11/25 09:43:38;;;;;;;;;;;22.50;36.10;;;;;;4974736;28;19981;-46
2023/11/25 09:46:06;;;;;;;;;;;22.50;36.10;;;;;;4973544;28;19930;-52
2023/11/25 09:48:33;;;;;;;;;;;22.50;36.00;;;;;;4981687;28;19926;-52
2023/11/25 09:51:00;;;;;;;;;;;22.50;35.90;;;;;;4975751;28;20034;-51
2023/11/25 09:53:28;;;;;;;;;;;22.50;35.90;;;;;;4974948;28;20000;-53
2023/11/25 09:56:00;;;;;;;;;;;22.50;35.90;;;;;;4973345;28;19973;-53
2023/11/25 09:58:34;;;;;;;;;;;22.50;35.80;;;;;;4972470;28;19981;-49
2023/11/25 10:01:05;;;;;;;;;;;22.50;35.70;;;;;;4975371;28;19926;-50
2023/11/25 10:03:33;;;;;;;;;;;22.60;35.70;;;;;;4973286;28;20430;-48
2023/11/25 10:06:02;;;;;;;;;;;22.60;35.60;;;;;;4974068;28;19926;-47
2023/11/25 10:08:29;;;;;;;;;;;22.60;35.60;;;;;;4976322;28;19930;-53
2023/11/25 10:11:00;;;;;;;;;;;22.60;35.60;;;;;;4971754;28;19926;-49
2023/11/25 10:13:32;;;;;;;;;;;22.60;35.60;;;;;;4973919;28;19981;-51
2023/11/25 10:15:59;;;;;;;;;;;22.60;35.50;;;;;;4973923;28;19933;-50
2023/11/25 10:18:26;;;;;;;;;;;22.60;35.40;;;;;;4956898;28;19949;-52
2023/11/25 10:20:57;;;;;;;;;;;22.50;35.40;;;;;;4972584;28;20075;-55
2023/11/25 10:23:25;;;;;;;;;;;22.50;35.90;;;;;;4974136;28;19965;-51
2023/11/25 10:25:53;;;;;;;;;;;22.50;35.30;;;;;;4972092;28;19926;-51
2023/11/25 10:28:20;;;;;;;;;;;22.50;35.30;;;;;;4973621;28;20020;-51
2023/11/25 10:30:55;;;;;;;;;;;22.50;35.20;;;;;;4974749;28;19937;-52
2023/11/25 10:33:23;;;;;;;;;;;22.50;35.10;;;;;;4973526;28;19992;-52
2023/11/25 10:35:54;;;;;;;;;;;22.50;35.10;;;;;;4973978;28;19930;-52
2023/11/25 10:38:22;;;;;;;;;;;22.60;35.10;;;;;;4973274;28;20050;-46
2023/11/25 10:40:49;;;;;;;;;;;22.60;35.00;;;;;;4971440;28;20414;-52
2023/11/25 10:43:16;;;;;;;;;;;22.60;34.80;;;;;;4971311;28;20000;-51
2023/11/25 10:45:44;;;;;;;;;;;22.60;34.90;;;;;;4974084;28;19962;-51
2023/11/25 10:48:11;;;;;;;;;;;22.60;34.70;;;;;;4970117;28;19930;-52
2023/11/25 10:50:42;;;;;;;;;;;22.60;34.70;;;;;;4969506;28;19934;-52
2023/11/25 10:53:13;;;;;;;;;;;22.60;34.60;;;;;;4971118;28;20022;-50
2023/11/25 10:55:42;;;;;;;;;;;22.60;34.60;;;;;;4973144;28;19926;-53
2023/11/25 10:58:11;;;;;;;;;;;22.60;34.40;;;;;;4972673;28;19940;-51
2023/11/25 11:00:38;;;;;;;;;;;22.70;34.40;;;;;;4975455;28;20020;-48
2023/11/25 11:03:08;;;;;;;;;;;22.70;34.30;;;;;;4958032;28;19969;-51
2023/11/25 11:05:45;;;;;;;;;;;22.70;34.20;;;;;;4974997;28;19973;-51
2023/11/25 11:08:24;;;;;;;;;;;22.70;34.10;;;;;;4975378;28;19930;-51
2023/11/25 11:10:56;;;;;;;;;;;22.70;34.10;;;;;;4974988;28;19950;-53
2023/11/25 11:13:28;;;;;;;;;;;22.60;34.00;;;;;;4975100;28;19930;-50
2023/11/25 11:15:57;;;;;;;;;;;22.60;34.00;;;;;;4975349;28;20358;-52
2023/11/25 11:18:27;;;;;;;;;;;22.60;34.00;;;;;;4974843;28;19980;-50
2023/11/25 11:20:57;;;;;;;;;;;22.60;33.90;;;;;;4974152;28;20212;-50
2023/11/25 11:23:25;;;;;;;;;;;22.60;33.80;;;;;;4974974;28;19973;-51
2023/11/25 11:25:59;;;;;;;;;;;22.60;33.80;;;;;;4974586;28;19981;-48
2023/11/25 11:28:38;;;;;;;;;;;22.60;33.80;;;;;;4974839;28;19933;-50
2023/11/25 11:31:25;;;;;;;;;;;22.60;33.80;;;;;;4974626;28;19973;-53
2023/11/25 11:33:52;;;;;;;;;;;22.60;33.70;;;;;;4957018;28;19984;-53
2023/11/25 11:36:20;;;;;;;;;;;22.60;33.60;;;;;;4957547;28;19930;-55
2023/11/25 11:38:47;;;;;;;;;;;22.60;33.50;;;;;;4974593;28;19955;-50
2023/11/25 11:41:29;;;;;;;;;;;22.60;33.40;;;;;;4974523;28;19973;-52
2023/11/25 11:44:03;;;;;;;;;;;22.60;33.40;;;;;;4974867;28;19938;-51
2023/11/25 11:46:38;;;;;;;;;;;22.60;33.50;;;;;;4977327;28;19941;-52
2023/11/25 11:49:10;;;;;;;;;;;22.60;33.30;;;;;;4993972;28;20017;-53
2023/11/25 11:51:57;;;;;;;;;;;22.60;33.10;;;;;;4994031;28;20375;-53
2023/11/25 11:54:24;;;;;;;;;;;22.60;33.10;;;;;;4993609;28;19965;-51
2023/11/25 11:57:02;;;;;;;;;;;22.70;33.10;;;;;;4993871;28;20016;-53
2023/11/25 11:59:48;;;;;;;;;;;22.70;33.00;;;;;;4994174;28;19933;-52
2023/11/25 12:02:17;;;;;;;;;;;22.70;33.00;;;;;;4996198;28;19926;-55
2023/11/25 12:04:45;;;;;;;;;;;22.70;32.90;;;;;;4998037;28;20465;-55
2023/11/25 12:07:13;;;;;;;;;;;22.60;32.80;;;;;;4997970;28;19926;-52
2023/11/25 12:09:41;;;;;;;;;;;22.60;32.70;;;;;;4998065;28;19930;-53
2023/11/25 12:12:07;;;;;;;;;;;22.60;32.70;;;;;;4998143;28;19925;-53
2023/11/25 12:14:34;;;;;;;;;;;22.60;32.60;;;;;;4997501;28;19933;-54
2023/11/25 12:17:02;;;;;;;;;;;22.60;32.60;;;;;;4997552;28;19973;-54
2023/11/25 12:19:30;;;;;;;;;;;22.70;32.60;;;;;;4997758;28;19933;-62
2023/11/25 12:21:57;;;;;;;;;;;22.70;32.60;;;;;;4997783;28;19926;-53
2023/11/25 12:24:24;;;;;;;;;;;22.70;32.70;;;;;;4997794;28;20008;-60
2023/11/25 12:26:53;;;;;;;;;;;22.70;32.40;;;;;;4980500;28;19933;-63
2023/11/25 12:29:23;;;;;;;;;;;22.70;32.30;;;;;;4977751;28;19973;-56
2023/11/25 12:31:49;;;;;;;;;;;22.70;32.30;;;;;;4977696;28;19926;-57
2023/11/25 12:34:17;;;;;;;;;;;22.70;32.30;;;;;;4977298;28;19939;-54
2023/11/25 12:36:44;;;;;;;;;;;22.70;32.30;;;;;;4977538;28;20008;-53
2023/11/25 12:39:12;;;;;;;;;;;22.70;32.30;;;;;;4978045;28;20017;-55
2023/11/25 12:41:39;;;;;;;;;;;22.70;32.10;;;;;;4978227;28;19926;-57
2023/11/25 12:44:09;;;;;;;;;;;22.70;32.10;;;;;;4977771;28;19972;-54
2023/11/25 12:46:38;;;;;;;;;;;22.70;32.00;;;;;;4981464;28;19926;-58
2023/11/25 12:49:19;;;;;;;;;;;22.70;31.90;;;;;;4997299;28;19926;-48
2023/11/25 12:51:46;;;;;;;;;;;22.70;31.90;;;;;;4996761;28;20339;-47
2023/11/25 12:54:14;;;;;;;;;;;22.70;31.80;;;;;;4979439;28;19926;-48
2023/11/25 12:56:42;;;;;;;;;;;22.70;31.90;;;;;;4997233;28;19930;-48
2023/11/25 12:59:12;;;;;;;;;;;22.70;31.80;;;;;;4996698;28;20018;-49
2023/11/25 13:01:40;;;;;;;;;;;22.70;31.80;;;;;;4996735;28;19932;-49
2023/11/25 13:04:07;;;;;;;;;;;22.60;31.70;;;;;;4996625;28;19930;-48
2023/11/25 13:06:47;;;;;;;;;;;22.70;31.70;;;;;;4996415;28;19980;-49
2023/11/25 13:09:14;;;;;;;;;;;22.70;31.70;;;;;;4996661;28;19972;-48
2023/11/25 13:11:42;;;;;;;;;;;22.60;31.60;;;;;;4996814;28;19926;-49
2023/11/25 13:14:09;;;;;;;;;;;22.60;31.60;;;;;;4995210;28;20450;-47
2023/11/25 13:16:38;;;;;;;;;;;22.60;31.50;;;;;;4996850;28;19972;-47
2023/11/25 13:19:08;;;;;;;;;;;22.60;31.60;;;;;;4964222;28;19933;-50
2023/11/25 13:21:35;;;;;;;;;;;22.60;31.50;;;;;;4977042;28;19927;-47
2023/11/25 13:24:03;;;;;;;;;;;22.60;31.50;;;;;;4977209;28;19926;-55
2023/11/25 13:26:30;;;;;;;;;;;22.60;31.50;;;;;;4977043;28;19926;-55
2023/11/25 13:28:57;;;;;;;;;;;22.60;31.50;;;;;;4977252;28;19970;-53
2023/11/25 13:31:24;;;;;;;;;;;22.60;31.50;;;;;;4976700;28;19930;-49
2023/11/25 13:33:51;;;;;;;;;;;22.60;31.50;;;;;;4976520;28;19926;-53
2023/11/25 13:36:18;;;;;;;;;;;22.60;31.40;;;;;;4977101;28;19936;-53
2023/11/25 13:38:45;;;;;;;;;;;22.60;31.30;;;;;;4994042;28;19972;-53
2023/11/25 13:41:12;;;;;;;;;;;22.60;31.30;;;;;;4994680;28;20004;-48
2023/11/25 13:43:39;;;;;;;;;;;22.60;31.30;;;;;;4996270;28;19926;-50
2023/11/25 13:46:06;;;;;;;;;;;22.60;31.20;;;;;;4995774;28;20406;-49
2023/11/25 13:48:33;;;;;;;;;;;22.60;31.20;;;;;;4976979;28;19977;-49
2023/11/25 13:51:03;;;;;;;;;;;22.60;31.30;;;;;;4976840;28;20015;-47
2023/11/25 13:53:30;;;;;;;;;;;22.50;31.20;;;;;;4976423;28;20009;-48
2023/11/25 13:55:58;;;;;;;;;;;22.50;31.10;;;;;;4976037;28;19980;-49
2023/11/25 13:58:25;;;;;;;;;;;22.50;31.10;;;;;;4976686;28;20014;-47
2023/11/25 14:00:53;;;;;;;;;;;22.50;31.10;;;;;;4976550;28;19933;-49
2023/11/25 14:03:20;;;;;;;;;;;22.50;31.10;;;;;;4976461;28;19934;-49
2023/11/25 14:05:48;;;;;;;;;;;22.50;31.00;;;;;;4976305;28;19965;-52
2023/11/25 14:08:18;;;;;;;;;;;22.50;31.10;;;;;;4976198;28;19926;-53
2023/11/25 14:10:45;;;;;;;;;;;22.50;31.10;;;;;;4976314;28;20009;-53
2023/11/25 14:13:13;;;;;;;;;;;22.60;31.20;;;;;;4976406;28;19930;-49
2023/11/25 14:15:41;;;;;;;;;;;22.60;31.30;;;;;;4976117;28;20021;-49
2023/11/25 14:18:10;;;;;;;;;;;22.60;31.40;;;;;;4959208;28;19926;-51
2023/11/25 14:20:37;;;;;;;;;;;22.60;31.50;;;;;;4976072;28;19933;-53
2023/11/25 14:23:05;;;;;;;;;;;22.50;31.50;;;;;;4975799;28;20384;-47